Airfield :
LOGIN :

Register | Disclaimer

   EN    FR    IT 

 










Legend :    VFR   Marginal VFR   IFR   Intensive IFR   Very Intensive IFR
Visi :
Ceiling :
>= 8 km
>= 3000ft
5 to 8 km
1000 to 3000 ft
1500m to 5 km
500 to 1000 ft
800 to 1500m
200 to 500 ft
< 800m
< 200 ft
Symbols :   Thunderstorms  Fog  Heavy snow  Heavy precipitations  Wind > 20 kt
SIGMETs :     Misc.  Thunderstorms  Icing  Turbulence  Mountain Waves  Volcanic Ashes






- Airport Elevation : 408 ft
- IATA code : SOB


LHSM - Sarmellek Balaton

CURRENT METAR :
  • 161345Z AUTO 01011KT 340V050 9999 FEW030 BKN055 M01/M07 Q1021 NOSIG

EXPIRED METARs :
  • 161315Z AUTO 01007KT CAVOK M01/M06 Q1021 NOSIG
  • 161245Z AUTO 01013KT 9999 BKN029 M01/M06 Q1021 NOSIG
  • 161215Z AUTO 01014KT 9999 FEW027 SCT076 BKN096 M00/M06 Q1021 NOSIG
  • 161145Z AUTO 36013KT 9999 BKN034 M01/M05 Q1022 NOSIG
  • 161115Z AUTO 36011KT 9000 -SHSN BKN021 M01/M05 Q1022 NOSIG

TAF TAF LHSM
Valid from the 16 at 12:00 until the 16 at 21:00 UTC


161115Z 1612/1621 35014G26KT 9999 BKN025 BKN070
TEMPO 1612/1621 5000 SN OVC015
BECMG 1615/1618 32008KT



MET'MAP, your aeronautical weather chart ! - Copyright ORBIFLY December 2007 - Disclaimer

ORBIFLY MET'MAP TEAM :

Programming & Development : Alexandra Zaïnal
Concept & original design : Baudouin d'Aumeries
Assistance for programming : Marc-Olivier Méhu
Technical & hardware support : Manuel Goepfert

Contact : metmap@orbifly.com




SOURCES & CREDITS :

   NOAA